createdAt,value
2023-03-22T00:02:26.827Z,10.00
2023-03-22T00:04:54.289Z,10.00
2023-03-22T00:07:21.080Z,10.00
2023-03-22T00:09:47.912Z,10.00
2023-03-22T00:12:14.646Z,10.00
2023-03-22T00:14:41.485Z,10.00
2023-03-22T00:17:08.344Z,10.00
2023-03-22T00:19:35.335Z,10.00
2023-03-22T00:22:03.605Z,9.90
2023-03-22T00:24:30.457Z,9.90
2023-03-22T00:26:58.591Z,9.90
2023-03-22T00:29:25.453Z,9.80
2023-03-22T00:31:54.324Z,9.70
2023-03-22T00:34:21.082Z,9.70
2023-03-22T00:36:48.434Z,9.60
2023-03-22T00:39:15.735Z,9.50
2023-03-22T00:41:42.684Z,9.40
2023-03-22T00:44:09.463Z,9.20
2023-03-22T00:46:36.488Z,9.10
2023-03-22T00:49:03.226Z,9.00
2023-03-22T00:51:33.315Z,9.00
2023-03-22T00:54:00.319Z,9.00
2023-03-22T00:56:28.874Z,8.90
2023-03-22T00:58:56.244Z,8.90
2023-03-22T01:01:23.153Z,8.90
2023-03-22T01:03:50.762Z,8.80
2023-03-22T01:06:18.189Z,8.70
2023-03-22T01:08:45.036Z,8.70
2023-03-22T01:11:12.628Z,8.60
2023-03-22T01:13:41.841Z,8.50
2023-03-22T01:16:09.790Z,8.40
2023-03-22T01:18:36.716Z,8.40
2023-03-22T01:21:03.812Z,8.30
2023-03-22T01:23:30.832Z,8.30
2023-03-22T01:25:57.631Z,8.20
2023-03-22T01:28:26.945Z,8.10
2023-03-22T01:30:54.713Z,8.10
2023-03-22T01:33:21.909Z,7.90
2023-03-22T01:35:48.731Z,7.80
2023-03-22T01:38:15.543Z,7.80
2023-03-22T01:40:42.630Z,7.70
2023-03-22T01:43:15.021Z,7.60
2023-03-22T01:45:48.214Z,7.60
2023-03-22T01:48:21.876Z,7.50
2023-03-22T01:51:12.594Z,7.40
2023-03-22T01:53:50.385Z,7.40
2023-03-22T01:56:21.046Z,7.40
2023-03-22T01:58:49.955Z,7.40
2023-03-22T02:01:17.351Z,7.40
2023-03-22T02:03:50.274Z,7.40
2023-03-22T02:06:18.803Z,7.40
2023-03-22T02:08:45.809Z,7.30
2023-03-22T02:11:43.706Z,7.30
2023-03-22T02:14:31.117Z,7.30
2023-03-22T02:17:33.051Z,7.20
2023-03-22T02:20:29.382Z,7.10
2023-03-22T02:23:21.114Z,6.90
2023-03-22T02:26:13.993Z,6.80
2023-03-22T02:28:48.553Z,6.80
2023-03-22T02:31:46.374Z,6.70
2023-03-22T02:34:49.958Z,6.80
2023-03-22T02:37:54.662Z,6.80
2023-03-22T02:40:57.622Z,6.70
2023-03-22T02:43:30.803Z,6.50
2023-03-22T02:46:05.587Z,6.40
2023-03-22T02:48:53.999Z,6.40
2023-03-22T02:51:36.978Z,6.50
2023-03-22T02:54:26.314Z,6.50
2023-03-22T02:57:23.269Z,6.50
2023-03-22T02:59:52.327Z,6.50
2023-03-22T03:02:20.117Z,6.40
2023-03-22T03:04:49.722Z,6.50
2023-03-22T03:07:21.952Z,6.40
2023-03-22T03:09:50.295Z,6.40
2023-03-22T03:12:23.359Z,6.40
2023-03-22T03:14:50.713Z,6.50
2023-03-22T03:17:37.961Z,6.50
2023-03-22T03:20:46.598Z,6.50
2023-03-22T03:23:31.253Z,6.50
2023-03-22T03:26:12.465Z,6.50
2023-03-22T03:28:49.831Z,6.50
2023-03-22T03:31:34.904Z,6.50
2023-03-22T03:34:20.280Z,6.50
2023-03-22T03:37:08.232Z,6.50
2023-03-22T03:39:52.843Z,6.40
2023-03-22T03:42:21.678Z,6.40
2023-03-22T03:44:49.003Z,6.40
2023-03-22T03:47:16.814Z,6.40
2023-03-22T03:49:43.591Z,6.40
2023-03-22T03:52:10.491Z,6.40
2023-03-22T03:54:37.259Z,6.30
2023-03-22T03:57:04.284Z,6.30
2023-03-22T03:59:31.062Z,6.30
2023-03-22T04:01:57.855Z,6.30
2023-03-22T04:04:28.229Z,6.30
2023-03-22T04:07:00.346Z,6.30
2023-03-22T04:09:29.457Z,6.30
2023-03-22T04:11:57.276Z,6.30
2023-03-22T04:14:25.047Z,6.20
2023-03-22T04:16:52.543Z,6.20
2023-03-22T04:19:20.247Z,6.20
2023-03-22T04:21:47.788Z,6.20
2023-03-22T04:24:15.075Z,6.10
2023-03-22T04:26:42.338Z,6.10
2023-03-22T04:29:09.368Z,6.10
2023-03-22T04:31:36.948Z,6.10
2023-03-22T04:34:06.564Z,6.00
2023-03-22T04:36:39.458Z,6.00
2023-03-22T04:39:09.012Z,5.90
2023-03-22T04:41:37.113Z,5.80
2023-03-22T04:44:05.375Z,5.80
2023-03-22T04:46:34.999Z,5.80
2023-03-22T04:49:01.897Z,5.70
2023-03-22T04:51:29.059Z,5.70
2023-03-22T04:53:55.907Z,5.60
2023-03-22T04:56:22.786Z,5.60
2023-03-22T04:58:49.554Z,5.50
2023-03-22T05:01:18.402Z,5.40
2023-03-22T05:03:47.392Z,5.40
2023-03-22T05:06:14.644Z,5.40
2023-03-22T05:08:41.767Z,5.40
2023-03-22T05:11:16.982Z,5.40
2023-03-22T05:13:43.845Z,5.30
2023-03-22T05:16:11.401Z,5.30
2023-03-22T05:18:45.402Z,5.30
2023-03-22T05:21:17.907Z,5.30
2023-03-22T05:23:45.737Z,5.20
2023-03-22T05:26:15.775Z,5.20
2023-03-22T05:28:44.065Z,5.20
2023-03-22T05:31:11.857Z,5.20
2023-03-22T05:33:39.222Z,5.10
2023-03-22T05:36:06.728Z,5.10
2023-03-22T05:38:33.688Z,5.10
2023-03-22T05:41:00.729Z,5.10
2023-03-22T05:43:27.598Z,5.20
2023-03-22T05:45:54.452Z,5.20
2023-03-22T05:48:21.379Z,5.20
2023-03-22T05:50:48.230Z,5.20
2023-03-22T05:53:15.415Z,5.20
2023-03-22T05:55:42.418Z,5.30
2023-03-22T05:58:10.908Z,5.30
2023-03-22T06:00:38.452Z,5.30
2023-03-22T06:03:05.504Z,5.30
2023-03-22T06:05:32.867Z,5.40
2023-03-22T06:07:59.910Z,5.40
2023-03-22T06:10:28.153Z,5.40
2023-03-22T06:12:55.451Z,5.40
2023-03-22T06:15:22.473Z,5.50
2023-03-22T06:17:49.428Z,5.50
2023-03-22T06:20:16.253Z,5.60
2023-03-22T06:22:43.138Z,5.60
2023-03-22T06:25:10.969Z,5.70
2023-03-22T06:27:37.846Z,5.70
2023-03-22T06:30:05.475Z,5.80
2023-03-22T06:32:32.299Z,5.80
2023-03-22T06:34:59.121Z,5.90
2023-03-22T06:37:26.149Z,5.90
2023-03-22T06:39:53.064Z,6.00
2023-03-22T06:42:20.154Z,5.90
2023-03-22T06:44:47.104Z,6.80
2023-03-22T06:47:14.055Z,6.40
2023-03-22T06:49:41.104Z,6.80
2023-03-22T06:52:08.025Z,7.10
2023-03-22T06:54:35.007Z,7.70
2023-03-22T06:57:01.827Z,8.20
2023-03-22T06:59:28.670Z,8.90
2023-03-22T07:01:55.447Z,11.10
2023-03-22T07:04:22.258Z,10.10
2023-03-22T07:06:49.127Z,10.70
2023-03-22T07:09:16.290Z,11.30
2023-03-22T07:11:43.192Z,11.80
2023-03-22T07:14:09.924Z,12.30
2023-03-22T07:16:36.756Z,12.70
2023-03-22T07:19:03.857Z,13.10
2023-03-22T07:21:30.890Z,13.50
2023-03-22T07:23:58.203Z,13.90
2023-03-22T07:26:26.402Z,14.20
2023-03-22T07:28:53.834Z,14.50
2023-03-22T07:31:20.679Z,14.70
2023-03-22T07:33:48.328Z,14.80
2023-03-22T07:36:15.553Z,12.90
2023-03-22T07:38:42.423Z,14.90
2023-03-22T07:41:09.439Z,15.00
2023-03-22T07:43:50.701Z,15.10
2023-03-22T07:46:18.011Z,15.10
2023-03-22T07:48:45.274Z,15.50
2023-03-22T07:51:12.335Z,15.40
2023-03-22T07:53:39.180Z,15.60
2023-03-22T07:56:06.863Z,15.90
2023-03-22T07:58:33.699Z,16.20
2023-03-22T08:01:05.562Z,16.80
2023-03-22T08:03:32.652Z,16.90
2023-03-22T08:06:02.923Z,17.00
2023-03-22T08:08:29.722Z,17.10
2023-03-22T08:10:56.591Z,17.20
2023-03-22T08:13:23.724Z,17.40
2023-03-22T08:15:50.660Z,17.50
2023-03-22T08:18:17.439Z,17.70
2023-03-22T08:20:45.698Z,17.80
2023-03-22T08:23:16.062Z,18.70
2023-03-22T08:25:43.392Z,18.00
2023-03-22T08:28:10.739Z,18.20
2023-03-22T08:30:38.432Z,18.30
2023-03-22T08:33:06.556Z,18.40
2023-03-22T08:35:33.645Z,20.10
2023-03-22T08:38:01.255Z,18.60
2023-03-22T08:40:28.132Z,18.70
2023-03-22T08:42:55.130Z,18.90
2023-03-22T08:45:22.510Z,19.50
2023-03-22T08:47:49.469Z,19.90
2023-03-22T08:50:16.327Z,19.70
2023-03-22T08:52:43.093Z,19.90
2023-03-22T08:55:10.239Z,20.00
2023-03-22T08:57:38.875Z,20.00
2023-03-22T09:00:06.842Z,20.00
2023-03-22T09:02:33.734Z,20.00
2023-03-22T09:05:00.488Z,20.30
2023-03-22T09:07:28.098Z,19.60
2023-03-22T09:09:55.088Z,19.10
2023-03-22T09:12:21.937Z,19.00
2023-03-22T09:14:50.008Z,18.20
2023-03-22T09:17:20.161Z,18.40
2023-03-22T09:19:48.097Z,17.60
2023-03-22T09:22:15.420Z,17.60
2023-03-22T09:24:42.336Z,17.80
2023-03-22T09:27:09.242Z,17.00
2023-03-22T09:29:36.085Z,17.20
2023-03-22T09:32:02.983Z,16.50
2023-03-22T09:34:29.752Z,16.50
2023-03-22T09:36:58.653Z,16.10
2023-03-22T09:39:25.629Z,15.90
2023-03-22T09:41:57.386Z,15.90
2023-03-22T09:44:31.668Z,15.80
2023-03-22T09:47:00.487Z,16.20
2023-03-22T09:49:43.604Z,15.70
2023-03-22T09:52:18.038Z,15.70
2023-03-22T09:54:47.164Z,16.00
2023-03-22T09:57:27.463Z,17.40
2023-03-22T10:00:05.939Z,15.60
2023-03-22T10:02:45.962Z,16.40
2023-03-22T10:05:42.035Z,15.70
2023-03-22T10:08:15.315Z,15.70
2023-03-22T10:10:43.148Z,15.70
2023-03-22T10:13:16.570Z,15.70
2023-03-22T10:15:50.497Z,15.80
2023-03-22T10:18:23.140Z,15.90
2023-03-22T10:21:00.590Z,17.60
2023-03-22T10:23:35.704Z,15.90
2023-03-22T10:26:03.924Z,15.90
2023-03-22T10:28:44.018Z,15.60
2023-03-22T10:31:17.530Z,15.60
2023-03-22T10:33:53.345Z,15.90
2023-03-22T10:36:23.849Z,15.80
2023-03-22T10:38:56.656Z,15.80
2023-03-22T10:41:25.718Z,15.90
2023-03-22T10:43:58.402Z,15.80
2023-03-22T10:46:28.938Z,15.90
2023-03-22T10:48:59.687Z,16.00
2023-03-22T10:51:34.324Z,16.10
2023-03-22T10:54:02.528Z,16.10
2023-03-22T10:56:29.270Z,17.30
2023-03-22T10:58:59.546Z,17.70
2023-03-22T11:01:32.359Z,16.10
2023-03-22T11:04:12.444Z,16.20
2023-03-22T11:06:48.999Z,17.50
2023-03-22T11:09:25.316Z,16.30
2023-03-22T11:11:54.368Z,17.80
2023-03-22T11:14:41.402Z,16.00
2023-03-22T11:17:19.716Z,16.10
2023-03-22T11:19:58.391Z,16.20
2023-03-22T11:22:42.608Z,16.30
2023-03-22T11:25:33.912Z,16.50
2023-03-22T11:28:04.249Z,16.70
2023-03-22T11:30:32.600Z,16.60
2023-03-22T11:33:08.613Z,16.70
2023-03-22T11:35:39.636Z,16.70
2023-03-22T11:38:07.613Z,16.60
2023-03-22T11:40:51.969Z,16.40
2023-03-22T11:43:26.150Z,16.40
2023-03-22T11:45:58.091Z,16.40
2023-03-22T11:48:28.919Z,16.50
2023-03-22T11:51:19.256Z,16.80
2023-03-22T11:53:48.483Z,16.40
2023-03-22T11:56:25.905Z,16.50
2023-03-22T11:59:14.465Z,16.60
2023-03-22T12:01:58.621Z,16.70
2023-03-22T12:04:29.620Z,16.70
2023-03-22T12:06:59.737Z,16.60
2023-03-22T12:09:59.156Z,17.90
2023-03-22T12:12:31.303Z,16.80
2023-03-22T12:15:03.864Z,16.80
2023-03-22T12:17:42.181Z,16.90
2023-03-22T12:20:22.015Z,17.10
2023-03-22T12:22:53.380Z,17.10
2023-03-22T12:25:41.297Z,16.70
2023-03-22T12:28:17.326Z,16.70
2023-03-22T12:30:48.009Z,16.60
2023-03-22T12:33:24.733Z,16.60
2023-03-22T12:35:56.212Z,16.70
2023-03-22T12:38:42.559Z,16.80
2023-03-22T12:41:35.773Z,17.00
2023-03-22T12:44:21.743Z,17.00
2023-03-22T12:47:20.554Z,17.00
2023-03-22T12:49:52.645Z,17.10
2023-03-22T12:52:45.514Z,17.00
2023-03-22T12:55:23.309Z,17.10
2023-03-22T12:57:54.639Z,17.10
2023-03-22T13:00:36.941Z,17.00
2023-03-22T13:03:16.331Z,17.10
2023-03-22T13:05:58.661Z,17.20
2023-03-22T13:08:25.500Z,17.30
2023-03-22T13:11:05.663Z,17.40
2023-03-22T13:13:44.058Z,17.40
2023-03-22T13:16:11.092Z,17.40
2023-03-22T13:18:38.305Z,18.40
2023-03-22T13:21:27.457Z,18.60
2023-03-22T13:24:10.091Z,17.40
2023-03-22T13:26:55.060Z,17.40
2023-03-22T13:29:38.899Z,17.20
2023-03-22T13:32:24.640Z,17.40
2023-03-22T13:34:53.368Z,17.20
2023-03-22T13:37:35.129Z,17.90
2023-03-22T13:40:13.137Z,17.30
2023-03-22T13:42:41.958Z,17.30
2023-03-22T13:45:44.364Z,17.40
2023-03-22T13:48:29.148Z,17.50
2023-03-22T13:50:58.279Z,17.40
2023-03-22T13:53:30.549Z,17.60
2023-03-22T13:55:58.811Z,17.80
2023-03-22T13:58:37.742Z,17.60
2023-03-22T14:01:35.185Z,17.50
2023-03-22T14:04:10.195Z,17.60
2023-03-22T14:07:08.674Z,17.60
2023-03-22T14:09:59.253Z,17.60
2023-03-22T14:12:36.563Z,17.50
2023-03-22T14:15:06.718Z,17.50
2023-03-22T14:17:45.248Z,17.40
2023-03-22T14:20:22.289Z,17.40
